Time;durP1;ratioP1;P1;durP2;ratioP2;P2;SDS_P1;SDS_P2;PMS_P1;PMS_P2;Temp;Humidity;BMP_temperature;BMP_pressure;BME280_temperature;BME280_humidity;BME280_pressure;Samples;Min_cycle;Max_cycle;Signal;HPM_P1;HPM_P2
2023/07/20 00:02:13;;;;;;;;;;;26.40;91.00;;;;;;5114720;28;19951;-44
2023/07/20 00:04:39;;;;;;;;;;;26.40;91.00;;;;;;5114690;28;19935;-46
2023/07/20 00:07:05;;;;;;;;;;;26.40;91.00;;;;;;5114333;28;20411;-47
2023/07/20 00:09:30;;;;;;;;;;;26.40;91.00;;;;;;5114253;28;19903;-47
2023/07/20 00:11:56;;;;;;;;;;;26.40;91.00;;;;;;5114515;28;19951;-47
2023/07/20 00:14:21;;;;;;;;;;;26.40;91.00;;;;;;5114506;28;19995;-47
2023/07/20 00:16:49;;;;;;;;;;;26.40;91.00;;;;;;5114584;28;19911;-47
2023/07/20 00:19:16;;;;;;;;;;;26.40;91.00;;;;;;5114537;28;19911;-44
2023/07/20 00:21:42;;;;;;;;;;;26.40;91.00;;;;;;5114425;28;19965;-48
2023/07/20 00:24:08;;;;;;;;;;;26.40;91.00;;;;;;5114532;28;19911;-45
2023/07/20 00:26:33;;;;;;;;;;;26.40;91.00;;;;;;5117911;28;19964;-48
2023/07/20 00:28:59;;;;;;;;;;;26.40;91.00;;;;;;5118480;28;20345;-44
2023/07/20 00:31:24;;;;;;;;;;;26.40;91.00;;;;;;5118676;28;20355;-48
2023/07/20 00:33:50;;;;;;;;;;;26.40;91.00;;;;;;5118427;28;19962;-48
2023/07/20 00:36:16;;;;;;;;;;;26.40;91.00;;;;;;5118313;28;19911;-45
2023/07/20 00:38:42;;;;;;;;;;;26.40;91.00;;;;;;5118548;28;19930;-45
2023/07/20 00:41:07;;;;;;;;;;;26.40;91.00;;;;;;5118344;28;19911;-47
2023/07/20 00:43:33;;;;;;;;;;;26.40;91.00;;;;;;5118429;28;19912;-48
2023/07/20 00:45:59;;;;;;;;;;;26.40;91.00;;;;;;5118486;28;19922;-49
2023/07/20 00:48:24;;;;;;;;;;;26.40;91.00;;;;;;5118219;28;20007;-46
2023/07/20 00:50:50;;;;;;;;;;;26.40;90.90;;;;;;5118360;28;19951;-47
2023/07/20 00:53:16;;;;;;;;;;;26.40;90.90;;;;;;5118073;28;19929;-47
2023/07/20 00:55:41;;;;;;;;;;;26.40;90.90;;;;;;5118234;28;19907;-46
2023/07/20 00:58:07;;;;;;;;;;;26.40;90.90;;;;;;5118002;28;19943;-48
2023/07/20 01:00:33;;;;;;;;;;;26.40;90.90;;;;;;5118188;28;19972;-43
2023/07/20 01:02:58;;;;;;;;;;;26.40;91.00;;;;;;5117740;28;19911;-45
2023/07/20 01:05:30;;;;;;;;;;;26.40;90.90;;;;;;5118137;28;19925;-46
2023/07/20 01:08:02;;;;;;;;;;;26.40;90.90;;;;;;5117810;28;20351;-49
2023/07/20 01:10:33;;;;;;;;;;;26.40;90.90;;;;;;5117641;28;19904;-47
2023/07/20 01:13:00;;;;;;;;;;;26.40;90.90;;;;;;5117628;28;19904;-44
2023/07/20 01:15:25;;;;;;;;;;;26.40;90.90;;;;;;5117631;28;19946;-50
2023/07/20 01:17:51;;;;;;;;;;;26.40;90.90;;;;;;5117781;28;19915;-47
2023/07/20 01:20:19;;;;;;;;;;;26.40;90.90;;;;;;5117506;28;20346;-47
2023/07/20 01:23:03;;;;;;;;;;;26.40;90.90;;;;;;5117375;28;19912;-46
2023/07/20 01:25:31;;;;;;;;;;;26.40;90.90;;;;;;5117655;28;19904;-45
2023/07/20 01:28:14;;;;;;;;;;;26.40;90.90;;;;;;5117388;28;20023;-46
2023/07/20 01:30:40;;;;;;;;;;;26.40;90.90;;;;;;5117944;28;19986;-44
2023/07/20 01:33:07;;;;;;;;;;;26.40;90.90;;;;;;5117507;28;19950;-44
2023/07/20 01:35:34;;;;;;;;;;;26.40;90.90;;;;;;5117403;28;19991;-45
2023/07/20 01:38:00;;;;;;;;;;;26.40;90.80;;;;;;5115739;28;19957;-49
2023/07/20 01:40:25;;;;;;;;;;;26.30;90.80;;;;;;5117096;28;19904;-46
2023/07/20 01:42:52;;;;;;;;;;;26.40;90.80;;;;;;5117556;28;19923;-47
2023/07/20 01:45:17;;;;;;;;;;;26.40;90.80;;;;;;5116788;28;19998;-46
2023/07/20 01:47:43;;;;;;;;;;;26.40;90.90;;;;;;5117041;28;20315;-50
2023/07/20 01:50:09;;;;;;;;;;;26.40;90.80;;;;;;5117302;28;19988;-47
2023/07/20 01:52:34;;;;;;;;;;;26.30;90.80;;;;;;5116949;28;19911;-44
2023/07/20 01:55:00;;;;;;;;;;;26.30;90.80;;;;;;5116814;28;19904;-44
2023/07/20 01:57:25;;;;;;;;;;;26.40;90.90;;;;;;5117116;28;20387;-47
2023/07/20 01:59:51;;;;;;;;;;;26.40;90.80;;;;;;5098779;28;19914;-44
2023/07/20 02:02:17;;;;;;;;;;;26.40;90.80;;;;;;5116989;28;19919;-44
2023/07/20 02:04:43;;;;;;;;;;;26.40;90.80;;;;;;5116590;28;19946;-49
2023/07/20 02:07:08;;;;;;;;;;;26.40;90.80;;;;;;5116592;28;19957;-45
2023/07/20 02:09:34;;;;;;;;;;;26.30;90.80;;;;;;5116583;28;19904;-48
2023/07/20 02:11:59;;;;;;;;;;;26.40;90.80;;;;;;5116480;28;19958;-49
2023/07/20 02:14:25;;;;;;;;;;;26.40;90.80;;;;;;5116714;28;19904;-47
2023/07/20 02:16:52;;;;;;;;;;;26.40;90.80;;;;;;5116718;28;19923;-47
2023/07/20 02:19:17;;;;;;;;;;;26.40;90.80;;;;;;5116740;28;19904;-44
2023/07/20 02:21:43;;;;;;;;;;;26.40;90.80;;;;;;5116328;28;19903;-48
2023/07/20 02:24:09;;;;;;;;;;;26.30;90.80;;;;;;5098265;28;19966;-50
2023/07/20 02:26:34;;;;;;;;;;;26.40;90.80;;;;;;5116270;28;19986;-47
2023/07/20 02:29:00;;;;;;;;;;;26.30;90.80;;;;;;5116223;28;19904;-45
2023/07/20 02:31:25;;;;;;;;;;;26.30;90.80;;;;;;5116402;28;19904;-46
2023/07/20 02:33:50;;;;;;;;;;;26.40;90.80;;;;;;5116098;28;19914;-47
2023/07/20 02:36:16;;;;;;;;;;;26.30;90.70;;;;;;5109719;28;20002;-47
2023/07/20 02:38:42;;;;;;;;;;;26.40;90.80;;;;;;5095857;28;19912;-47
2023/07/20 02:41:07;;;;;;;;;;;26.40;90.80;;;;;;5093656;28;19904;-45
2023/07/20 02:43:33;;;;;;;;;;;26.40;90.80;;;;;;5092461;28;19919;-50
2023/07/20 02:45:58;;;;;;;;;;;26.40;90.80;;;;;;5093885;28;19919;-45
2023/07/20 02:48:24;;;;;;;;;;;26.40;90.80;;;;;;5092923;28;19990;-46
2023/07/20 02:50:49;;;;;;;;;;;26.40;90.80;;;;;;5093571;28;19912;-47
2023/07/20 02:53:15;;;;;;;;;;;26.30;90.80;;;;;;5093565;28;19910;-45
2023/07/20 02:55:40;;;;;;;;;;;26.40;90.80;;;;;;5094681;28;19965;-46
2023/07/20 02:58:06;;;;;;;;;;;26.40;90.80;;;;;;5095538;28;20398;-49
2023/07/20 03:00:32;;;;;;;;;;;26.30;90.80;;;;;;5095524;28;19908;-46
2023/07/20 03:02:58;;;;;;;;;;;26.40;90.80;;;;;;5095501;28;19952;-49
2023/07/20 03:05:27;;;;;;;;;;;26.30;90.80;;;;;;5095415;28;19951;-48
2023/07/20 03:07:53;;;;;;;;;;;26.30;90.80;;;;;;5095342;28;19926;-46
2023/07/20 03:10:19;;;;;;;;;;;26.40;90.80;;;;;;5095154;28;19908;-46
2023/07/20 03:12:44;;;;;;;;;;;26.30;90.70;;;;;;5095121;28;19904;-46
2023/07/20 03:15:10;;;;;;;;;;;26.30;90.70;;;;;;5094825;28;19905;-49
2023/07/20 03:17:35;;;;;;;;;;;26.30;90.70;;;;;;5094839;28;19912;-48
2023/07/20 03:20:01;;;;;;;;;;;26.40;90.70;;;;;;5094830;28;19915;-47
2023/07/20 03:22:26;;;;;;;;;;;26.40;90.70;;;;;;5094737;28;19920;-46
2023/07/20 03:24:52;;;;;;;;;;;26.30;90.70;;;;;;5095062;28;20394;-45
2023/07/20 03:27:18;;;;;;;;;;;26.40;90.70;;;;;;5094617;28;19974;-45
2023/07/20 03:29:44;;;;;;;;;;;26.30;90.60;;;;;;5095143;28;19981;-47
2023/07/20 03:32:09;;;;;;;;;;;26.40;90.70;;;;;;5094755;28;19955;-45
2023/07/20 03:34:35;;;;;;;;;;;26.30;90.60;;;;;;5094840;28;19904;-46
2023/07/20 03:37:00;;;;;;;;;;;26.30;90.60;;;;;;5093150;28;19908;-44
2023/07/20 03:39:26;;;;;;;;;;;26.30;90.60;;;;;;5094767;28;20006;-47
2023/07/20 03:41:52;;;;;;;;;;;26.30;90.60;;;;;;5094652;28;20290;-46
2023/07/20 03:44:17;;;;;;;;;;;26.30;90.60;;;;;;5094136;28;20359;-46
2023/07/20 03:46:43;;;;;;;;;;;26.30;90.60;;;;;;5094822;28;19904;-48
2023/07/20 03:49:10;;;;;;;;;;;26.30;90.60;;;;;;5094836;28;19904;-44
2023/07/20 03:51:35;;;;;;;;;;;26.30;90.60;;;;;;5093130;28;19911;-46
2023/07/20 03:54:01;;;;;;;;;;;26.30;90.60;;;;;;5094417;28;19907;-48
2023/07/20 03:56:26;;;;;;;;;;;26.30;90.60;;;;;;5094398;28;19958;-45
2023/07/20 03:58:52;;;;;;;;;;;26.30;90.60;;;;;;5094403;28;19908;-44
2023/07/20 04:01:18;;;;;;;;;;;26.30;90.60;;;;;;5093681;28;19949;-45
2023/07/20 04:03:43;;;;;;;;;;;26.30;90.60;;;;;;5094070;28;19916;-48
2023/07/20 04:06:09;;;;;;;;;;;26.30;90.50;;;;;;5094314;28;19908;-46
2023/07/20 04:08:35;;;;;;;;;;;26.30;90.50;;;;;;5094007;28;19905;-45
2023/07/20 04:11:01;;;;;;;;;;;26.30;90.50;;;;;;5094282;28;19904;-47
2023/07/20 04:13:27;;;;;;;;;;;26.30;90.50;;;;;;5094087;28;19911;-47
2023/07/20 04:15:53;;;;;;;;;;;26.30;90.50;;;;;;5093761;28;20263;-51
2023/07/20 04:18:19;;;;;;;;;;;26.30;90.50;;;;;;5094119;28;19904;-49
2023/07/20 04:20:44;;;;;;;;;;;26.30;90.50;;;;;;5093763;28;19949;-47
2023/07/20 04:23:10;;;;;;;;;;;26.30;90.50;;;;;;5093004;28;19916;-49
2023/07/20 04:25:39;;;;;;;;;;;26.30;90.50;;;;;;5094005;28;19908;-46
2023/07/20 04:28:08;;;;;;;;;;;26.30;90.50;;;;;;5093791;28;20334;-47
2023/07/20 04:30:34;;;;;;;;;;;26.30;90.50;;;;;;5092430;28;19911;-43
2023/07/20 04:32:59;;;;;;;;;;;26.30;90.50;;;;;;5094247;28;19904;-45
2023/07/20 04:35:44;;;;;;;;;;;26.30;90.50;;;;;;5093659;28;19953;-48
2023/07/20 04:38:09;;;;;;;;;;;26.30;90.50;;;;;;5093982;28;20323;-47
2023/07/20 04:40:35;;;;;;;;;;;26.30;90.50;;;;;;5093810;28;19995;-46
2023/07/20 04:43:00;;;;;;;;;;;26.30;90.50;;;;;;5093834;28;19912;-49
2023/07/20 04:45:26;;;;;;;;;;;26.30;90.60;;;;;;5093662;28;19916;-46
2023/07/20 04:47:51;;;;;;;;;;;26.30;90.60;;;;;;5093440;28;19908;-47
2023/07/20 04:50:17;;;;;;;;;;;26.30;90.60;;;;;;5093764;28;19904;-46
2023/07/20 04:52:42;;;;;;;;;;;26.30;90.60;;;;;;5093754;28;19904;-48
2023/07/20 04:55:08;;;;;;;;;;;26.30;90.60;;;;;;5093631;28;19904;-45
2023/07/20 04:57:36;;;;;;;;;;;26.30;90.60;;;;;;5092835;28;20489;-46
2023/07/20 05:00:03;;;;;;;;;;;26.30;90.60;;;;;;5093279;28;20330;-46
2023/07/20 05:02:29;;;;;;;;;;;26.20;90.60;;;;;;5093308;28;19930;-44
2023/07/20 05:04:54;;;;;;;;;;;26.30;90.60;;;;;;5093749;28;20343;-45
2023/07/20 05:07:20;;;;;;;;;;;26.30;90.60;;;;;;5093631;28;19936;-47
2023/07/20 05:09:45;;;;;;;;;;;26.30;90.70;;;;;;5093453;28;19904;-47
2023/07/20 05:12:12;;;;;;;;;;;26.20;90.60;;;;;;5096273;28;19998;-44
2023/07/20 05:14:38;;;;;;;;;;;26.30;90.70;;;;;;5095867;28;19908;-47
2023/07/20 05:17:03;;;;;;;;;;;26.30;90.70;;;;;;5097305;28;20394;-46
2023/07/20 05:19:29;;;;;;;;;;;26.30;90.70;;;;;;5096780;28;19904;-47
2023/07/20 05:21:54;;;;;;;;;;;26.30;90.90;;;;;;5097057;28;19927;-47
2023/07/20 05:24:20;;;;;;;;;;;26.30;90.70;;;;;;5096700;28;19908;-45
2023/07/20 05:26:45;;;;;;;;;;;26.30;90.70;;;;;;5096413;28;20021;-47
2023/07/20 05:29:11;;;;;;;;;;;26.30;90.70;;;;;;5096443;28;19908;-48
2023/07/20 05:31:36;;;;;;;;;;;26.20;90.70;;;;;;5099860;28;20001;-46
2023/07/20 05:34:02;;;;;;;;;;;26.30;90.70;;;;;;5096756;28;19990;-47
2023/07/20 05:36:27;;;;;;;;;;;26.30;90.80;;;;;;5096995;28;19911;-47
2023/07/20 05:38:53;;;;;;;;;;;26.30;90.80;;;;;;5106159;28;19961;-45
2023/07/20 05:41:18;;;;;;;;;;;26.30;90.80;;;;;;5099259;28;19908;-50
2023/07/20 05:43:44;;;;;;;;;;;26.30;90.80;;;;;;5100163;28;20261;-43
2023/07/20 05:46:09;;;;;;;;;;;26.20;90.70;;;;;;5116025;28;20247;-48
2023/07/20 05:48:35;;;;;;;;;;;26.30;90.80;;;;;;5096107;28;19908;-47
2023/07/20 05:51:01;;;;;;;;;;;26.30;90.80;;;;;;5096034;28;19908;-44
2023/07/20 05:53:26;;;;;;;;;;;26.30;90.80;;;;;;5096086;28;19904;-51
2023/07/20 05:55:53;;;;;;;;;;;26.30;90.80;;;;;;5098841;28;19904;-46
2023/07/20 05:58:19;;;;;;;;;;;26.30;90.80;;;;;;5116483;28;20346;-47
2023/07/20 06:00:47;;;;;;;;;;;26.30;90.80;;;;;;5116626;28;19904;-45
2023/07/20 06:03:12;;;;;;;;;;;26.30;90.80;;;;;;5115069;28;20210;-47
2023/07/20 06:05:38;;;;;;;;;;;26.30;90.80;;;;;;5096084;28;19904;-47
2023/07/20 06:08:03;;;;;;;;;;;26.30;90.80;;;;;;5096046;28;20361;-47
2023/07/20 06:10:29;;;;;;;;;;;26.30;90.90;;;;;;5096060;28;19904;-44
2023/07/20 06:12:56;;;;;;;;;;;26.30;90.90;;;;;;5096862;28;20305;-45
2023/07/20 06:15:36;;;;;;;;;;;26.30;90.90;;;;;;5094741;28;19912;-46
2023/07/20 06:18:03;;;;;;;;;;;26.30;90.90;;;;;;5101459;28;19998;-45
2023/07/20 06:20:29;;;;;;;;;;;26.30;90.90;;;;;;5109923;28;19904;-50
2023/07/20 06:22:54;;;;;;;;;;;26.30;90.90;;;;;;5109322;28;19928;-45
2023/07/20 06:25:21;;;;;;;;;;;26.30;90.90;;;;;;5106700;28;20324;-47
2023/07/20 06:27:46;;;;;;;;;;;26.30;90.90;;;;;;5094662;28;20265;-49
2023/07/20 06:30:12;;;;;;;;;;;26.30;90.90;;;;;;5102229;28;19907;-49
2023/07/20 06:32:38;;;;;;;;;;;26.30;90.90;;;;;;5107397;28;19923;-45
2023/07/20 06:35:03;;;;;;;;;;;26.30;90.90;;;;;;5115348;28;19908;-44
2023/07/20 06:37:29;;;;;;;;;;;26.30;90.90;;;;;;5102675;28;19904;-44
2023/07/20 06:39:54;;;;;;;;;;;26.30;91.00;;;;;;5096608;28;19904;-43
2023/07/20 06:42:20;;;;;;;;;;;26.30;91.00;;;;;;5104013;28;19915;-45
2023/07/20 06:44:45;;;;;;;;;;;26.20;90.90;;;;;;5094587;28;19935;-46
2023/07/20 06:47:11;;;;;;;;;;;26.30;90.90;;;;;;5101554;28;19918;-44
2023/07/20 06:49:36;;;;;;;;;;;26.30;90.90;;;;;;5112190;28;20178;-45
2023/07/20 06:52:02;;;;;;;;;;;26.10;78.50;;;;;;5114131;28;19953;-46
2023/07/20 06:54:27;;;;;;;;;;;25.90;72.40;;;;;;5104329;28;19916;-45
2023/07/20 06:56:53;;;;;;;;;;;25.70;72.40;;;;;;5115237;28;19911;-41
2023/07/20 06:59:18;;;;;;;;;;;25.60;71.60;;;;;;5114415;28;19918;-45
2023/07/20 07:01:44;;;;;;;;;;;25.50;71.50;;;;;;5103468;28;19949;-42
2023/07/20 07:04:09;;;;;;;;;;;25.30;71.10;;;;;;5095445;28;20003;-45
2023/07/20 07:06:36;;;;;;;;;;;25.10;71.50;;;;;;5096916;28;20408;-46
2023/07/20 07:09:02;;;;;;;;;;;25.00;71.90;;;;;;5106100;28;19998;-43
2023/07/20 07:11:28;;;;;;;;;;;25.10;73.80;;;;;;5114893;28;19904;-45
2023/07/20 07:13:54;;;;;;;;;;;25.20;75.00;;;;;;5112668;28;19915;-44
2023/07/20 07:16:20;;;;;;;;;;;25.30;75.50;;;;;;5106008;28;20427;-46
2023/07/20 07:18:45;;;;;;;;;;;25.30;75.90;;;;;;5094787;28;19904;-44
2023/07/20 07:21:11;;;;;;;;;;;25.40;76.30;;;;;;5094464;28;20286;-48
2023/07/20 07:23:40;;;;;;;;;;;25.40;76.40;;;;;;5094822;28;19916;-46
2023/07/20 07:26:05;;;;;;;;;;;25.50;77.40;;;;;;5074228;28;20336;-43
2023/07/20 07:28:31;;;;;;;;;;;25.50;75.10;;;;;;5096158;28;19912;-45
2023/07/20 07:30:57;;;;;;;;;;;25.30;71.00;;;;;;5103953;28;19908;-45
2023/07/20 07:33:23;;;;;;;;;;;25.20;72.70;;;;;;5098103;28;19914;-43
2023/07/20 07:35:49;;;;;;;;;;;25.20;73.80;;;;;;5093704;28;19907;-45
2023/07/20 07:38:14;;;;;;;;;;;25.30;74.80;;;;;;5094496;28;20033;-43
2023/07/20 07:40:40;;;;;;;;;;;25.30;75.90;;;;;;5093156;28;19916;-44
2023/07/20 07:43:05;;;;;;;;;;;25.40;77.20;;;;;;5113666;28;20397;-46
2023/07/20 07:45:35;;;;;;;;;;;25.50;77.90;;;;;;5113349;28;20278;-45
2023/07/20 07:48:01;;;;;;;;;;;25.50;78.40;;;;;;5113716;28;19950;-45
2023/07/20 07:50:27;;;;;;;;;;;25.50;78.70;;;;;;5114499;28;19947;-44
2023/07/20 07:52:52;;;;;;;;;;;25.50;79.10;;;;;;5114473;28;19954;-46
2023/07/20 07:55:18;;;;;;;;;;;25.60;79.40;;;;;;5114619;28;19943;-45
2023/07/20 07:57:43;;;;;;;;;;;25.60;79.60;;;;;;5114138;28;19908;-48
2023/07/20 08:00:14;;;;;;;;;;;25.60;79.80;;;;;;5114182;28;20363;-44
2023/07/20 08:02:43;;;;;;;;;;;25.70;80.00;;;;;;5114223;28;20386;-42
2023/07/20 08:05:09;;;;;;;;;;;25.70;80.40;;;;;;5113913;28;20355;-46
2023/07/20 08:07:34;;;;;;;;;;;25.70;80.90;;;;;;5114319;28;19914;-46
2023/07/20 08:10:00;;;;;;;;;;;25.70;81.10;;;;;;5114038;28;19919;-44
2023/07/20 08:12:26;;;;;;;;;;;25.70;81.40;;;;;;5113863;28;20270;-46
2023/07/20 08:14:51;;;;;;;;;;;25.70;81.50;;;;;;5114236;28;19912;-45
2023/07/20 08:17:17;;;;;;;;;;;25.80;81.80;;;;;;5113925;28;20377;-43
2023/07/20 08:19:44;;;;;;;;;;;25.80;81.90;;;;;;5114066;28;19907;-43
2023/07/20 08:22:09;;;;;;;;;;;25.80;82.10;;;;;;5113663;28;19908;-46
2023/07/20 08:24:35;;;;;;;;;;;25.80;82.10;;;;;;5113386;28;19914;-45
2023/07/20 08:27:00;;;;;;;;;;;25.80;82.20;;;;;;5112952;28;19934;-44
2023/07/20 08:29:26;;;;;;;;;;;25.80;82.40;;;;;;5113960;28;19912;-44
2023/07/20 08:31:51;;;;;;;;;;;25.80;82.50;;;;;;5113680;28;19918;-46
2023/07/20 08:34:16;;;;;;;;;;;25.80;82.50;;;;;;5113924;28;19907;-46
2023/07/20 08:36:42;;;;;;;;;;;25.80;82.60;;;;;;5095629;28;20276;-43
2023/07/20 08:39:08;;;;;;;;;;;25.80;82.70;;;;;;5114214;28;19990;-44
2023/07/20 08:41:34;;;;;;;;;;;25.80;82.70;;;;;;5113715;28;19953;-45
2023/07/20 08:44:00;;;;;;;;;;;25.80;82.80;;;;;;5113693;28;19916;-44
2023/07/20 08:46:26;;;;;;;;;;;25.80;82.90;;;;;;5115436;28;19966;-44
2023/07/20 08:48:52;;;;;;;;;;;25.80;83.00;;;;;;5117775;28;19915;-44
2023/07/20 08:51:18;;;;;;;;;;;25.80;83.10;;;;;;5117557;28;19908;-43
2023/07/20 08:53:45;;;;;;;;;;;25.80;83.00;;;;;;5117961;28;19908;-46
2023/07/20 08:56:11;;;;;;;;;;;25.80;83.00;;;;;;5117751;28;19908;-43
2023/07/20 08:58:37;;;;;;;;;;;25.90;83.20;;;;;;5117846;28;19907;-49
2023/07/20 09:01:03;;;;;;;;;;;25.90;83.30;;;;;;5117764;28;19908;-49
2023/07/20 09:03:28;;;;;;;;;;;25.80;83.40;;;;;;5117442;28;20373;-47
2023/07/20 09:05:54;;;;;;;;;;;25.80;83.40;;;;;;5117263;28;20343;-44
2023/07/20 09:08:19;;;;;;;;;;;25.90;83.50;;;;;;5117658;28;19968;-47
2023/07/20 09:10:45;;;;;;;;;;;25.90;83.50;;;;;;5117075;28;19908;-44
2023/07/20 09:13:14;;;;;;;;;;;25.80;83.40;;;;;;5116924;28;19912;-42
2023/07/20 09:15:45;;;;;;;;;;;25.90;83.40;;;;;;5117172;28;19962;-43
2023/07/20 09:18:11;;;;;;;;;;;25.80;83.40;;;;;;5117104;28;19912;-43
2023/07/20 09:20:36;;;;;;;;;;;25.80;83.40;;;;;;5117142;28;20010;-45
2023/07/20 09:23:06;;;;;;;;;;;25.90;83.60;;;;;;5117116;28;19916;-43
2023/07/20 09:25:31;;;;;;;;;;;25.90;83.60;;;;;;5117383;28;19999;-49
2023/07/20 09:27:57;;;;;;;;;;;25.90;83.70;;;;;;5117187;28;19996;-43
2023/07/20 09:30:24;;;;;;;;;;;25.90;83.90;;;;;;5117062;28;19907;-43
2023/07/20 09:32:53;;;;;;;;;;;25.80;83.90;;;;;;5098538;28;19915;-46
2023/07/20 09:35:19;;;;;;;;;;;25.90;84.10;;;;;;5117404;28;19958;-45
2023/07/20 09:37:46;;;;;;;;;;;25.90;84.60;;;;;;5117048;28;19961;-45
2023/07/20 09:40:14;;;;;;;;;;;25.90;84.20;;;;;;5114307;28;19916;-44
2023/07/20 09:42:39;;;;;;;;;;;25.90;84.20;;;;;;5096004;28;20274;-44
2023/07/20 09:45:07;;;;;;;;;;;25.90;84.20;;;;;;5096283;28;20011;-45
2023/07/20 09:47:35;;;;;;;;;;;25.90;84.10;;;;;;5096346;28;19908;-43
2023/07/20 09:50:00;;;;;;;;;;;25.90;84.10;;;;;;5096347;28;19908;-42
2023/07/20 09:52:26;;;;;;;;;;;25.90;84.20;;;;;;5096414;28;19908;-46
2023/07/20 09:54:52;;;;;;;;;;;25.90;84.30;;;;;;5096458;28;19912;-44
2023/07/20 09:57:18;;;;;;;;;;;25.90;84.30;;;;;;5095363;28;20350;-48
2023/07/20 09:59:43;;;;;;;;;;;25.90;84.20;;;;;;5095759;28;19908;-49
2023/07/20 10:02:25;;;;;;;;;;;25.90;84.20;;;;;;5095832;28;19912;-44
2023/07/20 10:04:54;;;;;;;;;;;25.90;84.40;;;;;;5077893;28;19916;-44
2023/07/20 10:07:22;;;;;;;;;;;25.90;84.40;;;;;;5095862;28;20347;-46
2023/07/20 10:09:49;;;;;;;;;;;25.90;84.30;;;;;;5095789;28;20275;-48
2023/07/20 10:12:15;;;;;;;;;;;25.90;84.40;;;;;;5096055;28;19915;-46
2023/07/20 10:14:41;;;;;;;;;;;25.90;84.50;;;;;;5095914;28;19915;-46
2023/07/20 10:17:07;;;;;;;;;;;25.90;84.70;;;;;;5107212;28;19911;-47
2023/07/20 10:19:34;;;;;;;;;;;25.90;81.60;;;;;;5108843;28;19920;-43
2023/07/20 10:22:07;;;;;;;;;;;25.80;75.10;;;;;;5090490;28;19918;-43
2023/07/20 10:24:33;;;;;;;;;;;25.70;73.80;;;;;;5115380;28;19959;-42
2023/07/20 10:26:59;;;;;;;;;;;25.70;73.70;;;;;;5098394;28;20006;-46
2023/07/20 10:29:27;;;;;;;;;;;25.70;73.50;;;;;;5103386;28;19951;-46
2023/07/20 10:31:53;;;;;;;;;;;25.60;73.00;;;;;;5094522;28;19912;-46
2023/07/20 10:34:19;;;;;;;;;;;25.60;72.80;;;;;;5094385;28;20011;-46
2023/07/20 10:36:46;;;;;;;;;;;25.50;72.10;;;;;;5096003;28;19999;-45
2023/07/20 10:39:31;;;;;;;;;;;25.50;73.00;;;;;;5095563;28;20398;-44
2023/07/20 10:42:07;;;;;;;;;;;25.50;74.40;;;;;;5099589;28;20364;-46
2023/07/20 10:44:33;;;;;;;;;;;25.50;72.50;;;;;;5103277;28;20285;-48
2023/07/20 10:47:00;;;;;;;;;;;25.50;74.50;;;;;;5086274;28;19957;-44
2023/07/20 10:49:26;;;;;;;;;;;25.40;75.40;;;;;;5095038;28;19908;-46
2023/07/20 10:51:59;;;;;;;;;;;25.40;74.40;;;;;;5108445;28;19915;-44
2023/07/20 10:54:27;;;;;;;;;;;25.40;75.60;;;;;;5093757;28;20278;-42
2023/07/20 10:56:55;;;;;;;;;;;25.40;76.10;;;;;;5112263;28;19972;-45
2023/07/20 10:59:38;;;;;;;;;;;25.40;76.90;;;;;;5112559;28;19920;-45
2023/07/20 11:02:07;;;;;;;;;;;25.40;75.60;;;;;;5104638;28;20297;-48
2023/07/20 11:04:40;;;;;;;;;;;25.40;74.40;;;;;;5113444;28;20349;-44
2023/07/20 11:07:06;;;;;;;;;;;25.40;72.90;;;;;;5114949;28;20301;-43
2023/07/20 11:09:37;;;;;;;;;;;25.30;71.70;;;;;;5114684;28;19934;-47
2023/07/20 11:12:10;;;;;;;;;;;25.30;72.00;;;;;;5112218;28;19918;-43
2023/07/20 11:14:39;;;;;;;;;;;25.30;70.90;;;;;;5113641;28;20386;-45
2023/07/20 11:17:15;;;;;;;;;;;25.30;70.70;;;;;;5091930;28;19927;-44
2023/07/20 11:19:41;;;;;;;;;;;25.30;71.60;;;;;;5092494;28;19912;-45
2023/07/20 11:22:09;;;;;;;;;;;25.30;72.60;;;;;;5113863;28;19922;-46
2023/07/20 11:24:38;;;;;;;;;;;25.30;73.40;;;;;;5106766;28;19920;-45
2023/07/20 11:27:03;;;;;;;;;;;25.30;73.90;;;;;;5100232;28;19967;-48
2023/07/20 11:29:29;;;;;;;;;;;25.40;74.90;;;;;;5095542;28;20386;-44
2023/07/20 11:31:56;;;;;;;;;;;25.40;75.40;;;;;;5113490;28;19968;-45
2023/07/20 11:34:21;;;;;;;;;;;25.40;75.70;;;;;;5114376;28;20007;-43
2023/07/20 11:36:48;;;;;;;;;;;25.40;76.40;;;;;;5114288;28;19924;-44
2023/07/20 11:39:14;;;;;;;;;;;25.50;76.20;;;;;;5114416;28;19915;-46
2023/07/20 11:41:44;;;;;;;;;;;25.50;76.50;;;;;;5099654;28;20007;-43
2023/07/20 11:44:13;;;;;;;;;;;25.50;76.90;;;;;;5102795;28;19918;-45
2023/07/20 11:46:42;;;;;;;;;;;25.50;77.20;;;;;;5114467;28;19911;-46
2023/07/20 11:49:08;;;;;;;;;;;25.50;77.50;;;;;;5114466;28;19907;-45
2023/07/20 11:51:34;;;;;;;;;;;25.50;77.90;;;;;;5112469;28;19961;-43
2023/07/20 11:54:00;;;;;;;;;;;25.50;78.20;;;;;;5111824;28;19908;-48
2023/07/20 11:56:26;;;;;;;;;;;25.50;78.40;;;;;;5112194;28;19911;-44
2023/07/20 11:58:56;;;;;;;;;;;25.50;78.70;;;;;;5111849;28;19977;-45
2023/07/20 12:01:23;;;;;;;;;;;25.50;79.00;;;;;;5112018;28;20302;-45
2023/07/20 12:03:49;;;;;;;;;;;25.60;79.20;;;;;;5109693;28;19919;-46
2023/07/20 12:06:15;;;;;;;;;;;25.50;79.40;;;;;;5095390;28;19959;-45
2023/07/20 12:08:44;;;;;;;;;;;25.50;79.60;;;;;;5093998;28;19915;-45
2023/07/20 12:11:10;;;;;;;;;;;25.60;79.90;;;;;;5093305;28;19908;-43
2023/07/20 12:13:37;;;;;;;;;;;25.60;80.00;;;;;;5093758;28;19918;-47
2023/07/20 12:16:29;;;;;;;;;;;25.60;80.20;;;;;;5093465;28;20252;-49
2023/07/20 12:19:08;;;;;;;;;;;25.60;80.20;;;;;;5086895;28;19912;-46
2023/07/20 12:21:34;;;;;;;;;;;25.50;80.30;;;;;;5092665;28;19912;-46
2023/07/20 12:23:59;;;;;;;;;;;25.60;80.40;;;;;;5093011;28;19912;-47
2023/07/20 12:26:25;;;;;;;;;;;25.60;80.50;;;;;;5093675;28;20023;-44
2023/07/20 12:28:51;;;;;;;;;;;25.60;80.70;;;;;;5093607;28;19915;-48
2023/07/20 12:31:17;;;;;;;;;;;25.60;80.80;;;;;;5093112;28;20359;-49
2023/07/20 12:33:43;;;;;;;;;;;25.60;80.90;;;;;;5093668;28;19986;-45
2023/07/20 12:36:09;;;;;;;;;;;25.60;81.00;;;;;;5102281;28;19948;-47
2023/07/20 12:38:35;;;;;;;;;;;25.60;81.20;;;;;;5093725;28;19912;-43
2023/07/20 12:41:01;;;;;;;;;;;25.60;81.40;;;;;;5099962;28;19920;-46
2023/07/20 12:43:26;;;;;;;;;;;25.60;81.60;;;;;;5098065;28;19916;-48
2023/07/20 12:45:52;;;;;;;;;;;25.60;77.90;;;;;;5103541;28;19920;-45
2023/07/20 12:48:17;;;;;;;;;;;25.60;79.10;;;;;;5093904;28;20011;-45
2023/07/20 12:50:43;;;;;;;;;;;25.60;79.90;;;;;;5092998;28;19951;-44
2023/07/20 12:53:08;;;;;;;;;;;25.60;80.70;;;;;;5093238;28;19908;-45
2023/07/20 12:55:34;;;;;;;;;;;25.60;81.00;;;;;;5093427;28;19908;-43
2023/07/20 12:57:59;;;;;;;;;;;25.60;81.10;;;;;;5093356;28;19909;-46
2023/07/20 13:00:25;;;;;;;;;;;25.60;81.30;;;;;;5093405;28;20323;-46
2023/07/20 13:02:50;;;;;;;;;;;25.60;81.40;;;;;;5093021;28;19970;-44
2023/07/20 13:05:16;;;;;;;;;;;25.60;81.50;;;;;;5093375;28;19908;-46
2023/07/20 13:07:41;;;;;;;;;;;25.60;81.60;;;;;;5093187;28;19920;-45
2023/07/20 13:10:08;;;;;;;;;;;25.60;81.60;;;;;;5093013;28;20328;-45
2023/07/20 13:12:34;;;;;;;;;;;25.60;81.70;;;;;;5093500;28;19908;-47
2023/07/20 13:15:05;;;;;;;;;;;25.60;81.80;;;;;;5092773;28;19909;-49
2023/07/20 13:17:40;;;;;;;;;;;25.60;81.80;;;;;;5093074;28;19908;-47
2023/07/20 13:20:07;;;;;;;;;;;25.60;81.90;;;;;;5092909;28;19908;-45
2023/07/20 13:22:33;;;;;;;;;;;25.60;81.90;;;;;;5092579;28;19971;-45
2023/07/20 13:24:58;;;;;;;;;;;25.60;81.90;;;;;;5092907;28;19908;-43
2023/07/20 13:27:25;;;;;;;;;;;25.70;82.10;;;;;;5092617;28;19908;-50
2023/07/20 13:29:51;;;;;;;;;;;25.70;82.10;;;;;;5092860;28;19999;-44
2023/07/20 13:32:17;;;;;;;;;;;25.70;82.20;;;;;;5093807;28;20361;-48
2023/07/20 13:34:44;;;;;;;;;;;25.70;82.20;;;;;;5096200;28;19977;-48
2023/07/20 13:37:09;;;;;;;;;;;25.70;82.20;;;;;;5096205;28;19914;-44
2023/07/20 13:39:35;;;;;;;;;;;25.70;82.20;;;;;;5096593;28;19908;-43
2023/07/20 13:42:03;;;;;;;;;;;25.70;82.30;;;;;;5113625;28;20414;-44
2023/07/20 13:44:29;;;;;;;;;;;25.70;82.30;;;;;;5116720;28;20284;-47
2023/07/20 13:46:54;;;;;;;;;;;25.70;82.30;;;;;;5116733;28;19995;-44
2023/07/20 13:49:20;;;;;;;;;;;25.60;82.30;;;;;;5116635;28;19930;-48
2023/07/20 13:51:45;;;;;;;;;;;25.70;82.30;;;;;;5116444;28;19911;-43
2023/07/20 13:54:11;;;;;;;;;;;25.70;82.40;;;;;;5116043;28;19916;-45
2023/07/20 13:56:37;;;;;;;;;;;25.60;82.30;;;;;;5116647;28;19988;-46
2023/07/20 13:59:02;;;;;;;;;;;25.60;82.40;;;;;;5116172;28;19908;-44
2023/07/20 14:01:28;;;;;;;;;;;25.70;82.50;;;;;;5116145;28;20030;-49
2023/07/20 14:03:55;;;;;;;;;;;25.70;82.50;;;;;;5116207;28;19972;-43
2023/07/20 14:06:21;;;;;;;;;;;25.70;82.50;;;;;;5116193;28;19936;-46
2023/07/20 14:08:47;;;;;;;;;;;25.60;82.50;;;;;;5116264;28;20004;-48
2023/07/20 14:11:13;;;;;;;;;;;25.70;82.70;;;;;;5116026;28;19959;-46
2023/07/20 14:13:38;;;;;;;;;;;25.70;82.70;;;;;;5116061;28;19951;-42